Acres, Ontario

12:16 PM EST on November 20, 2017 (GMT -0500)
Kapuskasing | | Change Station

Elev 745 ft 49.42 °N, 82.47 °W | Updated 16 minutes ago

Partly Cloudy
Partly Cloudy
19 °F
Feels Like 10 °F
N
8
Wind Variable Wind from WSW

Today
High -- | Low -- °F
--% Chance of Precip.
Yesterday
High -- | Low -- °F
Precip. -- in
Pressure 29.79 in
Visibility 15.0 miles
Clouds Few 13000 ft
Scattered Clouds 25000 ft
Windchill 10 °F
Dew Point 10 °F
Humidity 68%
Rainfall 0.00 in
Snow Depth Not available.
7:51 AM 4:38 PM
Waxing Crescent, 5% visible
METAR CYYU 201700Z 24007KT 15SM FEW130 SCT250 M07/M12 A2973 RMK AC1CI3 SLP088
Pressure 29.79 in
Visibility 15.0 miles
Clouds Few 13000 ft
Scattered Clouds 25000 ft
Windchill 10 °F
Dew Point 10 °F
Humidity 68%
Rainfall 0.00 in
Snow Depth Not available.
7:51 AM 4:38 PM
Waxing Crescent, 5% visible
METAR CYYU 201700Z 24007KT 15SM FEW130 SCT250 M07/M12 A2973 RMK AC1CI3 SLP088

Get Severe Weather Alerts

Thanks for signing up!

Be on the lookout for a verification email in your inbox.

You'll start receiving the daily forecast at 6 AM.

×

10-Day Weather Forecast

Almanac

Astronomy

Nov. 20, 2017 Rise Set
Actual Time
Civil Twilight
Nautical Twilight
Astronomical Twilight
Moon
Length of Visible Light
Length of Day
Tomorrow will be .
, % of the Moon is Illuminated

Today's Extremes

Country Highs Country Lows

Community

WunderPhotos

Category 6

Welcome to Category 6. This is the collective home for Weather Underground's featured writeups by Dr. Jeff Masters (right), Bob Henson (left), Chris Burt, and other regular contributors.

Nearby

Air Quality

  Air Quality AQ Index Pollutant
Not available.

Snow Depth

Station Depth Elevation

Earthquake Activity

City Distance Mag. Time & Date
Minimum magnitude displayed is 2.5.

Coastal Water Temperatures

Place Temperature

Stations

Nearby Weather Stations

Station Location Temp. Windchill Dew Point Humidity Wind Precip. Elev Updated Type
                   

Watches & Warnings

There are currently no watches in effect.